Time;durP1;ratioP1;P1;durP2;ratioP2;P2;SDS_P1;SDS_P2;PMS_P1;PMS_P2;Temp;Humidity;BMP_temperature;BMP_pressure;BME280_temperature;BME280_humidity;BME280_pressure;Samples;Min_cycle;Max_cycle;Signal;HPM_P1;HPM_P2
2022/02/20 00:00:04;;;;;;;5.63;2.35;;;;;;;;;;5037205;28;20297;-78
2022/02/20 00:02:31;;;;;;;2.65;1.83;;;;;;;;;;5038402;28;20248;-82
2022/02/20 00:04:59;;;;;;;1.63;1.25;;;;;;;;;;5036798;28;20194;-79
2022/02/20 00:07:26;;;;;;;2.25;1.10;;;;;;;;;;5037436;28;20201;-78
2022/02/20 00:09:53;;;;;;;3.15;1.27;;;;;;;;;;5037154;28;20906;-79
2022/02/20 00:12:21;;;;;;;1.75;1.52;;;;;;;;;;5037465;28;20210;-81
2022/02/20 00:14:48;;;;;;;1.98;1.25;;;;;;;;;;5037143;28;20191;-76
2022/02/20 00:17:15;;;;;;;1.20;1.10;;;;;;;;;;5037889;28;20203;-80
2022/02/20 00:19:44;;;;;;;5.10;2.00;;;;;;;;;;5038402;28;20207;-76
2022/02/20 00:22:11;;;;;;;2.45;1.30;;;;;;;;;;5038092;28;20615;-79
2022/02/20 00:24:38;;;;;;;2.10;1.40;;;;;;;;;;5036977;28;20303;-80
2022/02/20 00:27:06;;;;;;;3.35;1.40;;;;;;;;;;5036142;28;20689;-76
2022/02/20 00:29:34;;;;;;;3.72;1.48;;;;;;;;;;5032731;28;20732;-80
2022/02/20 00:32:01;;;;;;;5.40;1.50;;;;;;;;;;5037635;28;20199;-78
2022/02/20 00:34:28;;;;;;;8.23;2.05;;;;;;;;;;5038457;28;20213;-78
2022/02/20 00:36:55;;;;;;;2.65;1.73;;;;;;;;;;5038497;28;20202;-78
2022/02/20 00:39:22;;;;;;;4.63;1.98;;;;;;;;;;5037757;28;20206;-81
2022/02/20 00:41:49;;;;;;;2.35;1.00;;;;;;;;;;5037755;28;20218;-77
2022/02/20 00:44:16;;;;;;;2.42;1.80;;;;;;;;;;5036240;28;20202;-81
2022/02/20 00:46:45;;;;;;;3.80;1.85;;;;;;;;;;5037167;28;20202;-79
2022/02/20 00:49:12;;;;;;;3.65;1.60;;;;;;;;;;5050919;28;20763;-75
2022/02/20 00:51:39;;;;;;;3.45;1.70;;;;;;;;;;5068142;28;20680;-75
2022/02/20 00:54:08;;;;;;;4.93;3.03;;;;;;;;;;5060756;28;20198;-79
2022/02/20 00:56:35;;;;;;;6.60;1.88;;;;;;;;;;5035745;28;20582;-81
2022/02/20 00:59:03;;;;;;;3.72;2.10;;;;;;;;;;5037489;28;20276;-76
2022/02/20 01:01:30;;;;;;;4.38;1.52;;;;;;;;;;5053207;28;20218;-78
2022/02/20 01:03:58;;;;;;;9.32;2.20;;;;;;;;;;5055093;28;20195;-76
2022/02/20 01:06:25;;;;;;;3.75;1.90;;;;;;;;;;5064236;28;20202;-74
2022/02/20 01:08:53;;;;;;;3.53;1.20;;;;;;;;;;5067929;28;20280;-78
2022/02/20 01:11:20;;;;;;;4.75;1.75;;;;;;;;;;5063245;28;20538;-75
2022/02/20 01:13:48;;;;;;;2.95;1.30;;;;;;;;;;5058056;28;20194;-74
2022/02/20 01:16:16;;;;;;;5.43;1.95;;;;;;;;;;5052844;28;20743;-75
2022/02/20 01:18:43;;;;;;;6.95;2.17;;;;;;;;;;5061323;28;20224;-76
2022/02/20 01:21:12;;;;;;;3.05;1.55;;;;;;;;;;5066993;28;20223;-75
2022/02/20 01:23:39;;;;;;;3.90;1.40;;;;;;;;;;5054457;28;20230;-75
2022/02/20 01:26:06;;;;;;;2.35;1.63;;;;;;;;;;5058902;28;20211;-77
2022/02/20 01:28:34;;;;;;;4.75;1.52;;;;;;;;;;5068181;28;20556;-75
2022/02/20 01:31:01;;;;;;;2.78;1.40;;;;;;;;;;5067133;28;20194;-75
2022/02/20 01:33:28;;;;;;;2.65;1.40;;;;;;;;;;5061990;28;20281;-77
2022/02/20 01:35:57;;;;;;;3.15;1.20;;;;;;;;;;5062085;28;20547;-76
2022/02/20 01:38:25;;;;;;;4.47;1.77;;;;;;;;;;5069938;28;20273;-74
2022/02/20 01:40:55;;;;;;;3.65;1.50;;;;;;;;;;5065437;28;20190;-75
2022/02/20 01:43:22;;;;;;;2.00;1.48;;;;;;;;;;5067273;28;20218;-75
2022/02/20 01:45:50;;;;;;;1.70;1.50;;;;;;;;;;5062022;28;20194;-75
2022/02/20 01:48:17;;;;;;;2.13;1.30;;;;;;;;;;5063054;28;20202;-75
2022/02/20 01:50:45;;;;;;;4.45;1.50;;;;;;;;;;5067995;28;20214;-75
2022/02/20 01:53:12;;;;;;;2.25;1.55;;;;;;;;;;5057234;28;20670;-79
2022/02/20 01:55:41;;;;;;;5.03;1.95;;;;;;;;;;5064488;28;20205;-77
2022/02/20 01:58:08;;;;;;;2.20;1.00;;;;;;;;;;5065600;28;20825;-75
2022/02/20 02:00:35;;;;;;;2.40;1.10;;;;;;;;;;5061806;28;20202;-75
2022/02/20 02:03:02;;;;;;;7.90;1.65;;;;;;;;;;5071822;28;20210;-76
2022/02/20 02:05:30;;;;;;;2.55;1.27;;;;;;;;;;5065716;28;20194;-79
2022/02/20 02:07:57;;;;;;;2.65;1.20;;;;;;;;;;5060594;28;20288;-78
2022/02/20 02:10:24;;;;;;;3.55;2.53;;;;;;;;;;5058194;28;20201;-74
2022/02/20 02:12:52;;;;;;;4.25;1.15;;;;;;;;;;5060982;28;20343;-76
2022/02/20 02:15:20;;;;;;;7.68;1.60;;;;;;;;;;5060210;28;20198;-74
2022/02/20 02:17:47;;;;;;;6.05;1.58;;;;;;;;;;5061167;28;20198;-75
2022/02/20 02:20:14;;;;;;;1.58;1.00;;;;;;;;;;5060466;28;20205;-75
2022/02/20 02:22:42;;;;;;;6.00;1.75;;;;;;;;;;5063337;28;20229;-74
2022/02/20 02:25:10;;;;;;;3.50;1.65;;;;;;;;;;5060259;28;20221;-75
2022/02/20 02:27:37;;;;;;;2.65;1.35;;;;;;;;;;5061310;28;20194;-73
2022/02/20 02:30:05;;;;;;;2.55;1.48;;;;;;;;;;5060736;28;20210;-79
2022/02/20 02:32:32;;;;;;;2.25;1.20;;;;;;;;;;5060179;28;20195;-75
2022/02/20 02:35:00;;;;;;;3.30;1.60;;;;;;;;;;5061045;28;20203;-76
2022/02/20 02:37:27;;;;;;;2.40;1.10;;;;;;;;;;5061899;28;20194;-76
2022/02/20 02:39:55;;;;;;;2.92;1.25;;;;;;;;;;5059877;28;20193;-76
2022/02/20 02:42:22;;;;;;;2.95;1.15;;;;;;;;;;5036819;28;20234;-81
2022/02/20 02:44:49;;;;;;;2.55;1.10;;;;;;;;;;5036270;28;20202;-78
2022/02/20 02:47:16;;;;;;;1.75;1.05;;;;;;;;;;5036877;28;20899;-81
2022/02/20 02:49:43;;;;;;;1.50;1.30;;;;;;;;;;5038052;28;20227;-81
2022/02/20 02:52:10;;;;;;;7.80;1.10;;;;;;;;;;5038584;28;20200;-80
2022/02/20 02:54:38;;;;;;;3.10;1.73;;;;;;;;;;5040766;28;20887;-79
2022/02/20 02:57:06;;;;;;;5.38;1.38;;;;;;;;;;5039371;28;20201;-80
2022/02/20 02:59:33;;;;;;;1.80;1.00;;;;;;;;;;5038760;28;20201;-75
2022/02/20 03:02:03;;;;;;;3.60;1.58;;;;;;;;;;5038811;28;20198;-79
2022/02/20 03:04:31;;;;;;;2.53;0.90;;;;;;;;;;5040050;28;20462;-81
2022/02/20 03:06:58;;;;;;;2.25;1.15;;;;;;;;;;5039666;28;20304;-76
2022/02/20 03:09:25;;;;;;;7.40;1.73;;;;;;;;;;5052123;28;20229;-75
2022/02/20 03:11:52;;;;;;;1.67;0.90;;;;;;;;;;5064237;28;20187;-78
2022/02/20 03:14:20;;;;;;;2.53;0.95;;;;;;;;;;5063982;28;20198;-75
2022/02/20 03:16:47;;;;;;;1.85;0.80;;;;;;;;;;5065831;28;21065;-75
2022/02/20 03:19:15;;;;;;;1.70;1.40;;;;;;;;;;5068411;28;20194;-76
2022/02/20 03:21:42;;;;;;;5.10;1.85;;;;;;;;;;5069823;28;20190;-74
2022/02/20 03:24:09;;;;;;;1.83;0.90;;;;;;;;;;5056591;28;20222;-75
2022/02/20 03:26:36;;;;;;;1.60;1.10;;;;;;;;;;5071166;28;20576;-74
2022/02/20 03:29:03;;;;;;;1.10;0.98;;;;;;;;;;5072088;28;20198;-74
2022/02/20 03:31:33;;;;;;;1.27;0.90;;;;;;;;;;5065436;28;20195;-75
2022/02/20 03:34:00;;;;;;;3.15;0.80;;;;;;;;;;5071934;28;20677;-75
2022/02/20 03:36:27;;;;;;;2.33;1.10;;;;;;;;;;5072590;28;20195;-76
2022/02/20 03:38:54;;;;;;;1.35;0.80;;;;;;;;;;5062021;28;20195;-76
2022/02/20 03:41:21;;;;;;;1.70;0.82;;;;;;;;;;5069295;28;20201;-76
2022/02/20 03:43:48;;;;;;;1.00;0.82;;;;;;;;;;5071111;28;20218;-75
2022/02/20 03:46:15;;;;;;;1.50;0.90;;;;;;;;;;5064555;28;20209;-76
2022/02/20 03:48:43;;;;;;;1.15;1.05;;;;;;;;;;5064468;28;20186;-75
2022/02/20 03:51:10;;;;;;;2.10;1.30;;;;;;;;;;5053143;28;20206;-75
2022/02/20 03:53:38;;;;;;;3.05;1.10;;;;;;;;;;5064934;28;20663;-77
2022/02/20 03:56:05;;;;;;;2.92;1.30;;;;;;;;;;5065989;28;20201;-78
2022/02/20 03:58:32;;;;;;;3.20;1.17;;;;;;;;;;5063950;28;20204;-75
2022/02/20 04:00:59;;;;;;;1.35;1.10;;;;;;;;;;5067469;28;20186;-75
2022/02/20 04:03:27;;;;;;;1.52;1.00;;;;;;;;;;5067272;28;20215;-75
2022/02/20 04:05:55;;;;;;;1.05;0.85;;;;;;;;;;5058689;28;20187;-75
2022/02/20 04:08:22;;;;;;;2.65;1.05;;;;;;;;;;5064761;28;20205;-74
2022/02/20 04:10:49;;;;;;;1.75;1.10;;;;;;;;;;5066937;28;20194;-80
2022/02/20 04:13:16;;;;;;;1.38;0.90;;;;;;;;;;5048438;28;20209;-81
2022/02/20 04:15:43;;;;;;;2.08;1.10;;;;;;;;;;5038277;28;20203;-77
2022/02/20 04:18:10;;;;;;;3.13;0.95;;;;;;;;;;5039436;28;20202;-79
2022/02/20 04:20:38;;;;;;;2.95;1.63;;;;;;;;;;5038767;28;20199;-77
2022/02/20 04:23:06;;;;;;;1.23;0.85;;;;;;;;;;5038155;28;21795;-78
2022/02/20 04:25:33;;;;;;;5.95;0.98;;;;;;;;;;5037171;28;20225;-81
2022/02/20 04:28:00;;;;;;;3.08;1.13;;;;;;;;;;5038895;28;21982;-76
2022/02/20 04:30:27;;;;;;;2.95;1.02;;;;;;;;;;5036956;28;20199;-77
2022/02/20 04:32:54;;;;;;;1.25;1.00;;;;;;;;;;5038471;28;20198;-81
2022/02/20 04:35:21;;;;;;;2.28;1.02;;;;;;;;;;5037663;28;20201;-78
2022/02/20 04:37:49;;;;;;;2.15;1.15;;;;;;;;;;5037945;28;20962;-76
2022/02/20 04:40:18;;;;;;;1.60;1.00;;;;;;;;;;5037006;28;20195;-81
2022/02/20 04:42:46;;;;;;;1.85;1.30;;;;;;;;;;5038128;28;20678;-74
2022/02/20 04:45:14;;;;;;;1.55;1.38;;;;;;;;;;5037661;28;20195;-78
2022/02/20 04:47:41;;;;;;;2.80;0.90;;;;;;;;;;5038035;28;20210;-81
2022/02/20 04:50:09;;;;;;;2.30;0.95;;;;;;;;;;5037693;28;20586;-78
2022/02/20 04:52:36;;;;;;;2.00;0.85;;;;;;;;;;5037444;28;21657;-81
2022/02/20 04:55:03;;;;;;;3.13;1.20;;;;;;;;;;5037913;28;20413;-76
2022/02/20 04:57:34;;;;;;;1.23;1.13;;;;;;;;;;5036824;28;20250;-84
2022/02/20 05:00:01;;;;;;;1.13;0.90;;;;;;;;;;5037716;28;20327;-76
2022/02/20 05:02:28;;;;;;;1.30;1.00;;;;;;;;;;5038130;28;20214;-82
2022/02/20 05:04:55;;;;;;;4.35;1.38;;;;;;;;;;5037969;28;20199;-76
2022/02/20 05:07:22;;;;;;;2.03;0.98;;;;;;;;;;5036763;28;20205;-80
2022/02/20 05:09:49;;;;;;;2.13;1.00;;;;;;;;;;5037126;28;20194;-77
2022/02/20 05:12:16;;;;;;;1.40;1.30;;;;;;;;;;5036860;28;20669;-80
2022/02/20 05:14:44;;;;;;;1.38;1.25;;;;;;;;;;5036940;28;20577;-75
2022/02/20 05:17:12;;;;;;;3.55;1.40;;;;;;;;;;5037883;28;20689;-80
2022/02/20 05:19:39;;;;;;;1.65;1.40;;;;;;;;;;5035972;28;20581;-80
2022/02/20 05:22:06;;;;;;;2.25;1.70;;;;;;;;;;5037301;28;20425;-79
2022/02/20 05:24:33;;;;;;;2.92;1.40;;;;;;;;;;5037871;28;20226;-75
2022/02/20 05:27:01;;;;;;;1.95;1.52;;;;;;;;;;5037411;28;20195;-78
2022/02/20 05:29:28;;;;;;;4.30;3.10;;;;;;;;;;5037069;28;20205;-78
2022/02/20 05:31:56;;;;;;;3.25;2.35;;;;;;;;;;5037451;28;20637;-76
2022/02/20 05:34:23;;;;;;;2.40;1.55;;;;;;;;;;5034995;28;20205;-78
2022/02/20 05:36:50;;;;;;;2.15;1.70;;;;;;;;;;5035835;28;20210;-75
2022/02/20 05:39:17;;;;;;;1.50;1.40;;;;;;;;;;5031820;28;20199;-78
2022/02/20 05:41:45;;;;;;;7.57;1.90;;;;;;;;;;5037347;28;20218;-76
2022/02/20 05:44:12;;;;;;;3.95;1.83;;;;;;;;;;5034172;28;20226;-79
2022/02/20 05:46:39;;;;;;;1.95;1.30;;;;;;;;;;5036202;28;20697;-75
2022/02/20 05:49:07;;;;;;;4.18;1.55;;;;;;;;;;5037131;28;20198;-78
2022/02/20 05:51:34;;;;;;;2.28;2.00;;;;;;;;;;5036586;28;20515;-77
2022/02/20 05:54:01;;;;;;;5.18;2.00;;;;;;;;;;5035738;28;20207;-77
2022/02/20 05:56:28;;;;;;;1.88;1.35;;;;;;;;;;5036818;28;20225;-78
2022/02/20 05:58:56;;;;;;;2.47;1.40;;;;;;;;;;5035564;28;20194;-82
2022/02/20 06:01:23;;;;;;;5.65;1.70;;;;;;;;;;5037072;28;20202;-79
2022/02/20 06:03:50;;;;;;;2.45;1.90;;;;;;;;;;5037717;28;20231;-77
2022/02/20 06:06:18;;;;;;;1.90;1.70;;;;;;;;;;5036778;28;20202;-79
2022/02/20 06:08:45;;;;;;;3.65;1.70;;;;;;;;;;5038121;28;20195;-79
2022/02/20 06:11:12;;;;;;;2.38;1.50;;;;;;;;;;5036103;28;20213;-81
2022/02/20 06:13:39;;;;;;;2.08;1.48;;;;;;;;;;5035142;28;20508;-76
2022/02/20 06:16:06;;;;;;;2.33;2.13;;;;;;;;;;5037357;28;20203;-81
2022/02/20 06:18:33;;;;;;;2.83;1.60;;;;;;;;;;5037255;28;20199;-77
2022/02/20 06:21:01;;;;;;;2.17;1.40;;;;;;;;;;5038215;28;20206;-80
2022/02/20 06:23:32;;;;;;;3.05;1.58;;;;;;;;;;5039981;28;20223;-77
2022/02/20 06:25:59;;;;;;;5.13;1.52;;;;;;;;;;5040752;28;20218;-77
2022/02/20 06:28:26;;;;;;;2.47;1.73;;;;;;;;;;5040754;28;20490;-77
2022/02/20 06:30:54;;;;;;;1.40;1.30;;;;;;;;;;5038431;28;20372;-80
2022/02/20 06:33:21;;;;;;;1.77;1.35;;;;;;;;;;5040325;28;20213;-81
2022/02/20 06:35:48;;;;;;;2.42;1.45;;;;;;;;;;5038768;28;20205;-77
2022/02/20 06:38:15;;;;;;;4.15;1.73;;;;;;;;;;5039588;28;20202;-80
2022/02/20 06:40:43;;;;;;;7.35;1.50;;;;;;;;;;5037887;28;20203;-78
2022/02/20 06:43:10;;;;;;;3.75;1.52;;;;;;;;;;5040658;28;20207;-77
2022/02/20 06:45:37;;;;;;;3.28;2.30;;;;;;;;;;5037980;28;20198;-80
2022/02/20 06:48:05;;;;;;;2.60;1.20;;;;;;;;;;5033763;28;20767;-77
2022/02/20 06:50:32;;;;;;;2.78;1.60;;;;;;;;;;5036636;28;20202;-82
2022/02/20 06:53:00;;;;;;;1.80;1.70;;;;;;;;;;5033337;28;20198;-75
2022/02/20 06:55:27;;;;;;;2.75;1.90;;;;;;;;;;5040306;28;20456;-78
2022/02/20 06:57:56;;;;;;;2.20;1.60;;;;;;;;;;5038775;28;20199;-74
2022/02/20 07:00:23;;;;;;;4.90;1.63;;;;;;;;;;5040324;28;20792;-75
2022/02/20 07:02:50;;;;;;;2.53;1.80;;;;;;;;;;5040986;28;20609;-79
2022/02/20 07:05:17;;;;;;;2.60;1.77;;;;;;;;;;5039642;28;20664;-75
2022/02/20 07:07:44;;;;;;;3.80;2.47;;;;;;;;;;5039247;28;20551;-79
2022/02/20 07:10:11;;;;;;;2.00;1.48;;;;;;;;;;5038548;28;20199;-78
2022/02/20 07:12:39;;;;;;;1.50;1.40;;;;;;;;;;5039292;28;20213;-79
2022/02/20 07:15:08;;;;;;;2.00;1.65;;;;;;;;;;5040021;28;20210;-75
2022/02/20 07:17:35;;;;;;;2.65;1.65;;;;;;;;;;5037647;28;20256;-72
2022/02/20 07:20:04;;;;;;;3.15;1.52;;;;;;;;;;5038204;28;21709;-77
2022/02/20 07:22:31;;;;;;;2.13;1.55;;;;;;;;;;5039571;28;20201;-78
2022/02/20 07:24:59;;;;;;;2.15;1.77;;;;;;;;;;5039574;28;20320;-76
2022/02/20 07:27:26;;;;;;;3.15;2.28;;;;;;;;;;5038403;28;20199;-77
2022/02/20 07:29:53;;;;;;;3.17;1.52;;;;;;;;;;5038079;28;21876;-75
2022/02/20 07:32:21;;;;;;;5.53;1.77;;;;;;;;;;5038674;28;20193;-80
2022/02/20 07:34:48;;;;;;;2.75;1.52;;;;;;;;;;5039425;28;20247;-78
2022/02/20 07:37:15;;;;;;;2.45;1.38;;;;;;;;;;5039646;28;20542;-77
2022/02/20 07:39:42;;;;;;;4.25;2.08;;;;;;;;;;5038767;28;20569;-78
2022/02/20 07:42:09;;;;;;;1.83;1.40;;;;;;;;;;5038701;28;20585;-74
2022/02/20 07:44:37;;;;;;;3.55;1.60;;;;;;;;;;5038628;28;20217;-79
2022/02/20 07:47:04;;;;;;;4.35;2.00;;;;;;;;;;5040025;28;20206;-75
2022/02/20 07:49:33;;;;;;;3.50;1.63;;;;;;;;;;5038655;28;20195;-79
2022/02/20 07:52:00;;;;;;;2.45;2.17;;;;;;;;;;5038861;28;20199;-74
2022/02/20 07:54:27;;;;;;;4.72;1.98;;;;;;;;;;5039041;28;20209;-77
2022/02/20 07:56:54;;;;;;;5.80;2.38;;;;;;;;;;5039260;28;20207;-76
2022/02/20 07:59:21;;;;;;;3.50;1.50;;;;;;;;;;5038019;28;20584;-74
2022/02/20 08:01:48;;;;;;;5.45;1.70;;;;;;;;;;5037738;28;20522;-76
2022/02/20 08:04:16;;;;;;;6.03;2.95;;;;;;;;;;5039294;28;20268;-78
2022/02/20 08:06:44;;;;;;;4.43;2.22;;;;;;;;;;5041207;28;20205;-73
2022/02/20 08:09:11;;;;;;;3.20;2.17;;;;;;;;;;5039291;28;20209;-76
2022/02/20 08:11:38;;;;;;;6.28;1.77;;;;;;;;;;5037838;28;20195;-76
2022/02/20 08:14:06;;;;;;;5.90;2.28;;;;;;;;;;5039116;28;20206;-74
2022/02/20 08:16:33;;;;;;;5.00;1.60;;;;;;;;;;5042988;28;20199;-76
2022/02/20 08:19:00;;;;;;;5.03;2.00;;;;;;;;;;5039532;28;20637;-71
2022/02/20 08:21:27;;;;;;;4.68;2.58;;;;;;;;;;5038605;28;20205;-74
2022/02/20 08:23:56;;;;;;;5.45;1.98;;;;;;;;;;5039528;28;20237;-74
2022/02/20 08:26:24;;;;;;;8.23;2.38;;;;;;;;;;5038518;28;22311;-74
2022/02/20 08:28:51;;;;;;;3.95;2.03;;;;;;;;;;5038518;28;20221;-76
2022/02/20 08:31:18;;;;;;;3.25;1.80;;;;;;;;;;5037698;28;20195;-73
2022/02/20 08:33:45;;;;;;;6.22;2.35;;;;;;;;;;5038792;28;20203;-76
2022/02/20 08:36:13;;;;;;;4.93;1.98;;;;;;;;;;5038557;28;20211;-72
2022/02/20 08:38:40;;;;;;;2.55;1.77;;;;;;;;;;5037563;28;20207;-74
2022/02/20 08:41:09;;;;;;;5.70;1.67;;;;;;;;;;5038845;28;20194;-72
2022/02/20 08:43:36;;;;;;;3.88;1.77;;;;;;;;;;5037508;28;20220;-72
2022/02/20 08:46:03;;;;;;;3.30;1.50;;;;;;;;;;5040061;28;20210;-77
2022/02/20 08:48:35;;;;;;;4.05;2.78;;;;;;;;;;5038272;28;20221;-74
2022/02/20 08:51:02;;;;;;;3.97;1.75;;;;;;;;;;5036793;28;20209;-75
2022/02/20 08:53:30;;;;;;;5.28;1.70;;;;;;;;;;5039661;28;20225;-75
2022/02/20 08:55:57;;;;;;;4.50;1.85;;;;;;;;;;5035392;28;20592;-74
2022/02/20 08:58:25;;;;;;;5.53;1.70;;;;;;;;;;5039707;28;20210;-75
2022/02/20 09:00:52;;;;;;;4.40;1.63;;;;;;;;;;5038493;28;20198;-75
2022/02/20 09:03:19;;;;;;;4.57;1.90;;;;;;;;;;5039645;28;20206;-76
2022/02/20 09:05:46;;;;;;;2.47;1.10;;;;;;;;;;5037580;28;20259;-76
2022/02/20 09:08:13;;;;;;;4.10;1.67;;;;;;;;;;5038590;28;20225;-76
2022/02/20 09:10:42;;;;;;;2.63;1.05;;;;;;;;;;5039145;28;20617;-76
2022/02/20 09:13:10;;;;;;;3.15;2.47;;;;;;;;;;5039243;28;20210;-73
2022/02/20 09:15:39;;;;;;;5.05;1.60;;;;;;;;;;5039785;28;20786;-79
2022/02/20 09:18:06;;;;;;;2.67;1.50;;;;;;;;;;5040601;28;20689;-78
2022/02/20 09:20:33;;;;;;;3.47;1.50;;;;;;;;;;5040427;28;20558;-79
2022/02/20 09:23:00;;;;;;;2.63;1.45;;;;;;;;;;5037750;28;20203;-75
2022/02/20 09:25:27;;;;;;;4.85;1.58;;;;;;;;;;5038233;28;20369;-80
2022/02/20 09:27:54;;;;;;;5.30;1.80;;;;;;;;;;5040156;28;20209;-80
2022/02/20 09:30:21;;;;;;;4.13;1.67;;;;;;;;;;5037567;28;20558;-79
2022/02/20 09:32:50;;;;;;;1.92;1.30;;;;;;;;;;5061750;28;20197;-73
2022/02/20 09:35:17;;;;;;;3.60;1.67;;;;;;;;;;5065102;28;20198;-73
2022/02/20 09:37:44;;;;;;;1.45;1.35;;;;;;;;;;5065844;28;20213;-75
2022/02/20 09:40:12;;;;;;;3.47;1.50;;;;;;;;;;5060887;28;20203;-73
2022/02/20 09:42:39;;;;;;;3.03;1.45;;;;;;;;;;5070322;28;20205;-73
2022/02/20 09:45:06;;;;;;;5.22;1.98;;;;;;;;;;5057583;28;20225;-77
2022/02/20 09:47:37;;;;;;;1.50;1.20;;;;;;;;;;5063705;28;20198;-73
2022/02/20 09:50:06;;;;;;;3.72;1.63;;;;;;;;;;5060818;28;20225;-75
2022/02/20 09:52:33;;;;;;;3.33;1.60;;;;;;;;;;5070340;28;20201;-74
2022/02/20 09:55:00;;;;;;;6.57;1.75;;;;;;;;;;5070972;28;20198;-73
2022/02/20 09:57:27;;;;;;;3.25;1.40;;;;;;;;;;5070385;28;20206;-73
2022/02/20 09:59:55;;;;;;;1.70;1.40;;;;;;;;;;5072880;28;20186;-74
2022/02/20 10:02:25;;;;;;;2.53;1.85;;;;;;;;;;5069524;28;20281;-73
2022/02/20 10:04:53;;;;;;;5.10;1.95;;;;;;;;;;5056913;28;20211;-72
2022/02/20 10:07:28;;;;;;;4.22;2.00;;;;;;;;;;5056372;28;20600;-75
2022/02/20 10:09:56;;;;;;;2.20;1.50;;;;;;;;;;5061882;28;20194;-74
2022/02/20 10:12:24;;;;;;;4.80;1.65;;;;;;;;;;5070973;28;20190;-73
2022/02/20 10:14:51;;;;;;;2.55;1.20;;;;;;;;;;5073513;28;20289;-72
2022/02/20 10:17:21;;;;;;;3.97;1.60;;;;;;;;;;5071198;28;20282;-78
2022/02/20 10:19:55;;;;;;;2.65;1.52;;;;;;;;;;5063387;28;20201;-77
2022/02/20 10:22:31;;;;;;;5.97;1.27;;;;;;;;;;5068707;28;20195;-76
2022/02/20 10:25:02;;;;;;;2.00;1.40;;;;;;;;;;5062776;28;20230;-72
2022/02/20 10:27:29;;;;;;;3.25;1.48;;;;;;;;;;5071592;28;20190;-75
2022/02/20 10:30:11;;;;;;;4.63;1.50;;;;;;;;;;5065499;28;20577;-73
2022/02/20 10:32:38;;;;;;;1.40;1.20;;;;;;;;;;5071182;28;20611;-72
2022/02/20 10:35:09;;;;;;;3.92;1.75;;;;;;;;;;5068670;28;20205;-73
2022/02/20 10:37:37;;;;;;;1.90;1.20;;;;;;;;;;5068243;28;20199;-76
2022/02/20 10:40:23;;;;;;;1.65;1.13;;;;;;;;;;5068334;28;20449;-75
2022/02/20 10:42:50;;;;;;;2.97;1.40;;;;;;;;;;5059441;28;20266;-74
2022/02/20 10:45:24;;;;;;;1.63;1.42;;;;;;;;;;5074346;28;20217;-74
2022/02/20 10:47:51;;;;;;;4.70;1.50;;;;;;;;;;5080363;28;20653;-74
2022/02/20 10:50:19;;;;;;;8.60;1.38;;;;;;;;;;5071586;28;20194;-74
2022/02/20 10:52:48;;;;;;;6.10;2.00;;;;;;;;;;5064234;28;20217;-74
2022/02/20 10:55:15;;;;;;;1.75;1.48;;;;;;;;;;5064337;28;20221;-78
2022/02/20 10:57:44;;;;;;;3.15;1.48;;;;;;;;;;5062659;28;21010;-74
2022/02/20 11:00:12;;;;;;;4.85;1.52;;;;;;;;;;5064971;28;20672;-74
2022/02/20 11:02:39;;;;;;;1.65;1.00;;;;;;;;;;5059302;28;20182;-75
2022/02/20 11:05:08;;;;;;;1.73;1.30;;;;;;;;;;5069105;28;20244;-74
2022/02/20 11:07:37;;;;;;;2.17;1.20;;;;;;;;;;5067759;28;20190;-77
2022/02/20 11:10:07;;;;;;;3.95;1.50;;;;;;;;;;5063247;28;20186;-73
2022/02/20 11:12:35;;;;;;;8.98;1.48;;;;;;;;;;5061866;28;20198;-74
2022/02/20 11:15:04;;;;;;;2.58;1.42;;;;;;;;;;5061956;28;20565;-74
2022/02/20 11:17:33;;;;;;;3.22;1.63;;;;;;;;;;5060642;28;20453;-74
2022/02/20 11:20:01;;;;;;;3.00;1.15;;;;;;;;;;5070572;28;20591;-73
2022/02/20 11:22:30;;;;;;;2.20;1.20;;;;;;;;;;5066341;28;20201;-74
2022/02/20 11:24:57;;;;;;;1.85;1.30;;;;;;;;;;5065490;28;20211;-73
2022/02/20 11:27:27;;;;;;;2.33;1.35;;;;;;;;;;5062049;28;20199;-74
2022/02/20 11:29:54;;;;;;;3.20;1.80;;;;;;;;;;5063828;28;20199;-74
2022/02/20 11:32:21;;;;;;;2.38;1.60;;;;;;;;;;5069849;28;20220;-74
2022/02/20 11:34:49;;;;;;;2.65;1.45;;;;;;;;;;5072749;28;20198;-74
2022/02/20 11:37:16;;;;;;;2.38;1.30;;;;;;;;;;5071225;28;20365;-74
2022/02/20 11:39:58;;;;;;;8.00;1.50;;;;;;;;;;5064324;28;20198;-74
2022/02/20 11:42:27;;;;;;;3.72;1.55;;;;;;;;;;5076039;28;20201;-74
2022/02/20 11:44:56;;;;;;;4.32;1.80;;;;;;;;;;5080413;28;20283;-74
2022/02/20 11:47:40;;;;;;;3.70;1.45;;;;;;;;;;5071038;28;20190;-74
2022/02/20 11:50:26;;;;;;;4.53;1.63;;;;;;;;;;5061128;28;20206;-73
2022/02/20 11:52:54;;;;;;;7.32;2.00;;;;;;;;;;5070582;28;20572;-73
2022/02/20 11:55:24;;;;;;;4.80;2.03;;;;;;;;;;5063232;28;20202;-77
2022/02/20 11:57:52;;;;;;;3.85;2.28;;;;;;;;;;5066788;28;20205;-73
2022/02/20 12:00:23;;;;;;;3.67;1.55;;;;;;;;;;5061908;28;20194;-74
2022/02/20 12:03:17;;;;;;;4.93;1.88;;;;;;;;;;5066249;28;20546;-73
2022/02/20 12:05:44;;;;;;;3.38;1.80;;;;;;;;;;5070497;28;20313;-77
2022/02/20 12:08:31;;;;;;;2.20;1.45;;;;;;;;;;5063421;28;20203;-73
2022/02/20 12:11:10;;;;;;;7.63;1.85;;;;;;;;;;5058481;28;20198;-73
2022/02/20 12:13:44;;;;;;;3.00;1.80;;;;;;;;;;5065154;28;20205;-75
2022/02/20 12:16:21;;;;;;;4.20;1.45;;;;;;;;;;5067800;28;20220;-73
2022/02/20 12:19:07;;;;;;;3.88;2.17;;;;;;;;;;5063547;28;20199;-74
2022/02/20 12:21:35;;;;;;;3.20;1.70;;;;;;;;;;5058917;28;20198;-75
2022/02/20 12:24:15;;;;;;;4.95;1.80;;;;;;;;;;5067661;28;20269;-74
2022/02/20 12:26:47;;;;;;;7.05;1.85;;;;;;;;;;5070455;28;20290;-75
2022/02/20 12:29:16;;;;;;;7.10;2.10;;;;;;;;;;5069717;28;20233;-75
2022/02/20 12:31:59;;;;;;;8.35;1.92;;;;;;;;;;5062192;28;20202;-72
2022/02/20 12:34:44;;;;;;;8.20;1.83;;;;;;;;;;5062762;28;20194;-74
2022/02/20 12:37:12;;;;;;;3.55;1.42;;;;;;;;;;5051124;28;20205;-74
2022/02/20 12:39:39;;;;;;;5.70;1.80;;;;;;;;;;5062127;28;20202;-74
2022/02/20 12:42:07;;;;;;;2.75;2.20;;;;;;;;;;5061727;28;20197;-72
2022/02/20 12:44:38;;;;;;;3.10;1.85;;;;;;;;;;5059103;28;20191;-76
2022/02/20 12:47:07;;;;;;;7.43;1.95;;;;;;;;;;5063727;28;20309;-75
2022/02/20 12:49:34;;;;;;;8.95;1.85;;;;;;;;;;5069695;28;20274;-76
2022/02/20 12:52:05;;;;;;;6.05;1.70;;;;;;;;;;5059918;28;20198;-77
2022/02/20 12:54:32;;;;;;;5.45;1.77;;;;;;;;;;5059437;28;20202;-74
2022/02/20 12:57:02;;;;;;;4.70;2.17;;;;;;;;;;5059511;28;20198;-75
2022/02/20 12:59:30;;;;;;;5.70;1.83;;;;;;;;;;5064963;28;20213;-74
2022/02/20 13:02:02;;;;;;;3.47;1.52;;;;;;;;;;5058220;28;20212;-74
2022/02/20 13:04:29;;;;;;;6.15;2.95;;;;;;;;;;5053974;28;20198;-76
2022/02/20 13:07:01;;;;;;;2.72;1.70;;;;;;;;;;5064221;28;20248;-73
2022/02/20 13:09:29;;;;;;;3.33;1.38;;;;;;;;;;5059780;28;20206;-77
2022/02/20 13:11:56;;;;;;;2.88;1.55;;;;;;;;;;5050139;28;20194;-74
2022/02/20 13:14:24;;;;;;;3.53;1.67;;;;;;;;;;5066578;28;20774;-74
2022/02/20 13:16:52;;;;;;;3.47;2.15;;;;;;;;;;5062357;28;20194;-74
2022/02/20 13:19:34;;;;;;;6.28;2.10;;;;;;;;;;5058104;28;20656;-73
2022/02/20 13:22:11;;;;;;;4.80;1.60;;;;;;;;;;5059780;28;20190;-73
2022/02/20 13:24:53;;;;;;;6.15;2.55;;;;;;;;;;5054813;28;20218;-74
2022/02/20 13:27:20;;;;;;;2.35;2.03;;;;;;;;;;5058759;28;20218;-73
2022/02/20 13:29:47;;;;;;;9.73;3.22;;;;;;;;;;5062082;28;20201;-73
2022/02/20 13:32:15;;;;;;;6.65;1.73;;;;;;;;;;5060586;28;20203;-73
2022/02/20 13:34:44;;;;;;;4.75;1.73;;;;;;;;;;5068592;28;20200;-74
2022/02/20 13:37:13;;;;;;;6.65;2.30;;;;;;;;;;5063412;28;20203;-75
2022/02/20 13:39:40;;;;;;;5.47;1.83;;;;;;;;;;5064566;28;20201;-75
2022/02/20 13:42:08;;;;;;;6.38;2.47;;;;;;;;;;5063851;28;20207;-75
2022/02/20 13:44:38;;;;;;;4.00;2.13;;;;;;;;;;5068622;28;20201;-77
2022/02/20 13:47:06;;;;;;;10.27;2.50;;;;;;;;;;5071121;28;20636;-75
2022/02/20 13:49:33;;;;;;;7.05;2.53;;;;;;;;;;5050232;28;20202;-75
2022/02/20 13:52:02;;;;;;;7.22;2.80;;;;;;;;;;5060014;28;20243;-74
2022/02/20 13:54:36;;;;;;;3.70;1.60;;;;;;;;;;5065834;28;20245;-74
2022/02/20 13:57:04;;;;;;;3.55;1.73;;;;;;;;;;5068103;28;20194;-74
2022/02/20 13:59:31;;;;;;;4.72;2.05;;;;;;;;;;5067918;28;20213;-74
2022/02/20 14:02:01;;;;;;;3.25;2.10;;;;;;;;;;5068873;28;20190;-74
2022/02/20 14:04:29;;;;;;;8.77;2.33;;;;;;;;;;5056876;28;20203;-78
2022/02/20 14:07:01;;;;;;;10.20;2.08;;;;;;;;;;5055991;28;20307;-74
2022/02/20 14:09:31;;;;;;;7.45;2.40;;;;;;;;;;5064265;28;20213;-77
2022/02/20 14:12:16;;;;;;;5.13;1.85;;;;;;;;;;5054004;28;20585;-76
2022/02/20 14:14:59;;;;;;;3.22;1.70;;;;;;;;;;5068899;28;20206;-76
2022/02/20 14:17:41;;;;;;;5.30;1.70;;;;;;;;;;5055305;28;20337;-75
2022/02/20 14:20:10;;;;;;;6.68;1.88;;;;;;;;;;5057256;28;20205;-75
2022/02/20 14:22:39;;;;;;;5.03;2.25;;;;;;;;;;5066319;28;20290;-79
2022/02/20 14:25:09;;;;;;;4.57;2.03;;;;;;;;;;5062447;28;20565;-75
2022/02/20 14:27:37;;;;;;;5.97;2.15;;;;;;;;;;5067601;28;20795;-79
2022/02/20 14:30:05;;;;;;;5.30;2.33;;;;;;;;;;5069115;28;20335;-82
2022/02/20 14:32:33;;;;;;;5.03;2.40;;;;;;;;;;5063130;28;20683;-78
2022/02/20 14:35:00;;;;;;;4.57;2.10;;;;;;;;;;5063456;28;20736;-74
2022/02/20 14:37:34;;;;;;;4.13;2.13;;;;;;;;;;5068336;28;20202;-75
2022/02/20 14:40:01;;;;;;;5.20;2.17;;;;;;;;;;5063696;28;20194;-77
2022/02/20 14:42:29;;;;;;;8.07;1.85;;;;;;;;;;5074236;28;20193;-74
2022/02/20 14:44:56;;;;;;;6.22;2.15;;;;;;;;;;5076363;28;20198;-74
2022/02/20 14:47:24;;;;;;;5.00;2.03;;;;;;;;;;5066639;28;20222;-74
2022/02/20 14:49:53;;;;;;;4.35;2.10;;;;;;;;;;5059893;28;20198;-76